| time (UTC) | temp C | wind direction | speed KPH | gust KPH | rain 1hr cm | rain 24hr cm | rain mn cm | humidity % | barometer mb |
| 20260906214730 | 30 | 125 | 0.0 | 1.6 | 0.00 | 0.00 | 0.00 | 39 | 1017.2 |
| 20260906214226 | 30 | 151 | 1.6 | 1.6 | 0.00 | 0.00 | 0.00 | 39 | 1017.3 |
| 20260906213719 | 30 | 44 | 4.8 | 4.8 | 0.00 | 0.00 | 0.00 | 39 | 1017.5 |
| 20260906213214 | 30 | 102 | 6.4 | 6.4 | 0.00 | 0.00 | 0.00 | 39 | 1017.5 |
| 20260906212711 | 30 | 141 | 1.6 | 3.2 | 0.00 | 0.00 | 0.00 | 39 | 1017.6 |
| 20260906212207 | 31 | 130 | 0.0 | 1.6 | 0.00 | 0.00 | 0.00 | 39 | 1017.7 |
| 20260906211706 | 30 | 169 | 1.6 | 1.6 | 0.00 | 0.00 | 0.00 | 39 | 1017.9 |
| 20260906211202 | 30 | 45 | 6.4 | 6.4 | 0.00 | 0.00 | 0.00 | 40 | 1017.7 |
| 20260906210657 | 30 | 166 | 0.0 | 1.6 | 0.00 | 0.00 | 0.00 | 39 | 1017.9 |
| 20260906210157 | 30 | 163 | 3.2 | 4.8 | 0.00 | 0.00 | 0.00 | 37 | 1017.9 |
| 20260906205652 | 30 | 176 | 0.0 | 0.0 | 0.00 | 0.00 | 0.00 | 41 | 1017.9 |
| 20260906205149 | 30 | 143 | 0.0 | 1.6 | 0.00 | 0.00 | 0.00 | 40 | 1017.9 |
| 20260906204648 | 30 | 166 | 1.6 | 3.2 | 0.00 | 0.00 | 0.00 | 42 | 1018.0 |
| 20260906204143 | 30 | 42 | 6.4 | 6.4 | 0.00 | 0.00 | 0.00 | 43 | 1018.0 |
| 20260906203643 | 30 | 115 | 1.6 | 3.2 | 0.00 | 0.00 | 0.00 | 44 | 1018.0 |
| 20260906203138 | 30 | 134 | 1.6 | 3.2 | 0.00 | 0.00 | 0.00 | 44 | 1018.4 |
| 20260906202635 | 29 | 149 | 1.6 | 1.6 | 0.00 | 0.00 | 0.00 | 44 | 1018.5 |
| 20260906202134 | 29 | 177 | 1.6 | 3.2 | 0.00 | 0.00 | 0.00 | 44 | 1018.4 |
| 20260906201630 | 30 | 169 | 0.0 | 0.0 | 0.00 | 0.00 | 0.00 | 46 | 1018.3 |
| 20260906201128 | 28 | 190 | 0.0 | 1.6 | 0.00 | 0.00 | 0.00 | 46 | 1018.5 |
| 20260906200625 | 28 | 58 | 3.2 | 4.8 | 0.00 | 0.00 | 0.00 | 47 | 1018.6 |
| 20260906200121 | 30 | 18 | 3.2 | 9.7 | 0.00 | 0.00 | 0.00 | 45 | 1018.5 |
| 20260906195620 | 30 | 184 | 0.0 | 0.0 | 0.00 | 0.00 | 0.00 | 45 | 1018.7 |
| 20260906195117 | 28 | 170 | 1.6 | 3.2 | 0.00 | 0.00 | 0.00 | 45 | 1018.7 |
| 20260906194613 | 28 | 122 | 0.0 | 0.0 | 0.00 | 0.00 | 0.00 | 45 | 1018.8 |
| 20260906194109 | 28 | 59 | 6.4 | 6.4 | 0.00 | 0.00 | 0.00 | 47 | 1019.0 |
| 20260906193609 | 28 | 77 | 4.8 | 4.8 | 0.00 | 0.00 | 0.00 | 46 | 1018.8 |
| 20260906193104 | 28 | 184 | 0.0 | 1.6 | 0.00 | 0.00 | 0.00 | 47 | 1018.8 |
| 20260906192559 | 28 | 157 | 1.6 | 1.6 | 0.00 | 0.00 | 0.00 | 47 | 1019.2 |
| 20260906192058 | 28 | 129 | 3.2 | 3.2 | 0.00 | 0.00 | 0.00 | 46 | 1019.1 |
| 20260906191554 | 28 | 177 | 0.0 | 1.6 | 0.00 | 0.00 | 0.00 | 47 | 1019.2 |
| 20260906191053 | 28 | 149 | 1.6 | 1.6 | 0.00 | 0.00 | 0.00 | 46 | 1019.4 |
| 20260906190552 | 28 | 78 | 1.6 | 4.8 | 0.00 | 0.00 | 0.00 | 45 | 1019.4 |
| 20260906190047 | 28 | 166 | 0.0 | 0.0 | 0.00 | 0.00 | 0.00 | 46 | 1019.3 |
| 20260906185546 | 28 | 179 | 0.0 | 0.0 | 0.00 | 0.00 | 0.00 | 47 | 1019.5 |
| 20260906185045 | 28 | 97 | 1.6 | 1.6 | 0.00 | 0.00 | 0.00 | 45 | 1019.8 |
| 20260906184540 | 28 | 128 | 3.2 | 4.8 | 0.00 | 0.00 | 0.00 | 46 | 1019.9 |
| 20260906184036 | 28 | 172 | 0.0 | 0.0 | 0.00 | 0.00 | 0.00 | 46 | 1020.0 |
| 20260906183532 | 28 | 166 | 3.2 | 3.2 | 0.00 | 0.00 | 0.00 | 47 | 1020.0 |
| 20260906183027 | 28 | 165 | 3.2 | 4.8 | 0.00 | 0.00 | 0.00 | 48 | 1020.2 |
| 20260906182522 | 28 | 133 | 4.8 | 4.8 | 0.00 | 0.00 | 0.00 | 47 | 1020.2 |
| 20260906182018 | 26 | 182 | 0.0 | 0.0 | 0.00 | 0.00 | 0.00 | 51 | 1020.4 |
| 20260906181514 | 27 | 151 | 3.2 | 3.2 | 0.00 | 0.00 | 0.00 | 53 | 1020.4 |
| 20260906181009 | 26 | 169 | 1.6 | 1.6 | 0.00 | 0.00 | 0.00 | 53 | 1020.5 |
| 20260906180504 | 27 | 168 | 0.0 | 0.0 | 0.00 | 0.00 | 0.00 | 52 | 1020.6 |
| 20260906180002 | 26 | 119 | 1.6 | 1.6 | 0.00 | 0.00 | 0.00 | 55 | 1020.9 |
| 20260906175457 | 26 | 183 | 0.0 | 0.0 | 0.00 | 0.00 | 0.00 | 55 | 1020.8 |
| 20260906174956 | 26 | 178 | 0.0 | 0.0 | 0.00 | 0.00 | 0.00 | 54 | 1020.9 |
| 20260906174455 | 26 | 159 | 0.0 | 1.6 | 0.00 | 0.00 | 0.00 | 56 | 1020.9 |
| 20260906173950 | 27 | 111 | 1.6 | 3.2 | 0.00 | 0.00 | 0.00 | 52 | 1021.1 |
| 20260906173445 | 27 | 179 | 0.0 | 0.0 | 0.00 | 0.00 | 0.00 | 53 | 1021.3 |
| 20260906172944 | 26 | 166 | 0.0 | 1.6 | 0.00 | 0.00 | 0.00 | 53 | 1021.5 |
| 20260906172436 | 26 | 115 | 3.2 | 4.8 | 0.00 | 0.00 | 0.00 | 55 | 1021.3 |
| 20260906171930 | 25 | 357 | 3.2 | 4.8 | 0.00 | 0.00 | 0.00 | 58 | 1021.3 |
| 20260906171425 | 26 | 23 | 6.4 | 6.4 | 0.00 | 0.00 | 0.00 | 56 | 1021.6 |
| 20260906170920 | 25 | 100 | 1.6 | 1.6 | 0.00 | 0.00 | 0.00 | 59 | 1021.6 |
| 20260906170417 | 25 | 158 | 1.6 | 1.6 | 0.00 | 0.00 | 0.00 | 59 | 1021.9 |
| 20260906165913 | 26 | 65 | 3.2 | 3.2 | 0.00 | 0.00 | 0.00 | 57 | 1021.8 |
| 20260906165412 | 25 | 115 | 3.2 | 3.2 | 0.00 | 0.00 | 0.00 | 60 | 1021.6 |
| 20260906164907 | 25 | 32 | 3.2 | 4.8 | 0.00 | 0.00 | 0.00 | 57 | 1021.6 |
| 20260906164406 | 25 | 95 | 0.0 | 1.6 | 0.00 | 0.00 | 0.00 | 58 | 1021.6 |
| 20260906163902 | 25 | 122 | 0.0 | 1.6 | 0.00 | 0.00 | 0.00 | 58 | 1021.5 |
| 20260906163358 | 25 | 176 | 0.0 | 0.0 | 0.00 | 0.00 | 0.00 | 58 | 1021.6 |
| 20260906162856 | 25 | 172 | 0.0 | 0.0 | 0.00 | 0.00 | 0.00 | 57 | 1021.5 |
| 20260906162349 | 25 | 96 | 1.6 | 3.2 | 0.00 | 0.00 | 0.00 | 57 | 1021.8 |
| 20260906161844 | 25 | 48 | 3.2 | 4.8 | 0.00 | 0.00 | 0.00 | 58 | 1021.6 |
| 20260906161343 | 24 | 209 | 1.6 | 3.2 | 0.00 | 0.00 | 0.00 | 58 | 1021.6 |
| 20260906160843 | 23 | 181 | 0.0 | 0.0 | 0.00 | 0.00 | 0.00 | 60 | 1021.6 |
| 20260906160337 | 24 | 36 | 1.6 | 3.2 | 0.00 | 0.00 | 0.00 | 59 | 1021.8 |
| 20260906155835 | 23 | 139 | 1.6 | 1.6 | 0.00 | 0.00 | 0.00 | 61 | 1021.9 |
| 20260906155329 | 23 | 172 | 0.0 | 0.0 | 0.00 | 0.00 | 0.00 | 62 | 1021.8 |
| 20260906154825 | 23 | 144 | 1.6 | 3.2 | 0.00 | 0.00 | 0.00 | 62 | 1021.9 |
| 20260906154319 | 22 | 61 | 3.2 | 3.2 | 0.00 | 0.00 | 0.00 | 63 | 1021.9 |
| 20260906153818 | 22 | 142 | 3.2 | 3.2 | 0.00 | 0.00 | 0.00 | 64 | 1021.8 |
| 20260906153313 | 22 | 112 | 0.0 | 1.6 | 0.00 | 0.00 | 0.00 | 63 | 1021.6 |
| 20260906152808 | 22 | 164 | 1.6 | 3.2 | 0.00 | 0.00 | 0.00 | 64 | 1022.0 |
| 20260906152306 | 21 | 116 | 3.2 | 4.8 | 0.00 | 0.00 | 0.00 | 66 | 1021.9 |
| 20260906151802 | 21 | 59 | 4.8 | 4.8 | 0.00 | 0.00 | 0.00 | 67 | 1021.8 |
| 20260906151257 | 21 | 116 | 0.0 | 1.6 | 0.00 | 0.00 | 0.00 | 68 | 1022.1 |
| 20260906150753 | 21 | 90 | 3.2 | 3.2 | 0.00 | 0.00 | 0.00 | 65 | 1022.0 |
| 20260906150249 | 21 | 74 | 4.8 | 4.8 | 0.00 | 0.00 | 0.00 | 68 | 1021.9 |
| 20260906145747 | 21 | 73 | 3.2 | 3.2 | 0.00 | 0.00 | 0.00 | 68 | 1021.9 |
| 20260906145245 | 21 | 59 | 4.8 | 4.8 | 0.00 | 0.00 | 0.00 | 68 | 1022.0 |
| 20260906144741 | 20 | 118 | 3.2 | 3.2 | 0.00 | 0.00 | 0.00 | 70 | 1021.9 |
| 20260906144237 | 21 | 59 | 3.2 | 4.8 | 0.00 | 0.00 | 0.00 | 68 | 1021.9 |
| 20260906143736 | 21 | 133 | 3.2 | 3.2 | 0.00 | 0.00 | 0.00 | 67 | 1021.8 |
| 20260906143233 | 20 | 197 | 0.0 | 0.0 | 0.00 | 0.00 | 0.00 | 68 | 1021.8 |
| 20260906142732 | 20 | 165 | 0.0 | 0.0 | 0.00 | 0.00 | 0.00 | 69 | 1021.6 |
| 20260906142228 | 20 | 168 | 0.0 | 0.0 | 0.00 | 0.00 | 0.00 | 68 | 1021.8 |
| 20260906141727 | 20 | 192 | 1.6 | 1.6 | 0.00 | 0.00 | 0.00 | 68 | 1021.9 |
| 20260906141222 | 19 | 193 | 0.0 | 0.0 | 0.00 | 0.00 | 0.00 | 67 | 1021.9 |
| 20260906140721 | 19 | 190 | 1.6 | 1.6 | 0.00 | 0.00 | 0.00 | 65 | 1022.0 |
| 20260906140216 | 18 | 220 | 0.0 | 1.6 | 0.00 | 0.00 | 0.00 | 67 | 1021.8 |
| 20260906135713 | 17 | 197 | 0.0 | 0.0 | 0.00 | 0.00 | 0.00 | 69 | 1021.9 |
| 20260906135209 | 17 | 196 | 0.0 | 1.6 | 0.00 | 0.00 | 0.00 | 68 | 1022.0 |
| 20260906134704 | 17 | 204 | 0.0 | 0.0 | 0.00 | 0.00 | 0.00 | 68 | 1021.9 |
| 20260906134159 | 17 | 189 | 0.0 | 1.6 | 0.00 | 0.00 | 0.00 | 68 | 1021.9 |
| 20260906133655 | 16 | 199 | 0.0 | 0.0 | 0.00 | 0.00 | 0.00 | 71 | 1021.8 |
| 20260906133149 | 16 | 197 | 0.0 | 0.0 | 0.00 | 0.00 | 0.00 | 72 | 1022.0 |
| 20260906132645 | 16 | 197 | 0.0 | 0.0 | 0.00 | 0.00 | 0.00 | 73 | 1021.9 |
| 20260906132140 | 16 | 196 | 0.0 | 0.0 | 0.00 | 0.00 | 0.00 | 73 | 1021.9 |
| 20260906131636 | 16 | 198 | 0.0 | 0.0 | 0.00 | 0.00 | 0.00 | 72 | 1021.6 |
| 20260906131130 | 16 | 191 | 0.0 | 0.0 | 0.00 | 0.00 | 0.00 | 72 | 1021.6 |
| 20260906130627 | 16 | 203 | 0.0 | 0.0 | 0.00 | 0.00 | 0.00 | 73 | 1021.4 |
| 20260906130121 | 16 | 201 | 0.0 | 0.0 | 0.00 | 0.00 | 0.00 | 73 | 1021.8 |
| 20260906125618 | 16 | 201 | 0.0 | 0.0 | 0.00 | 0.00 | 0.00 | 75 | 1021.5 |
| 20260906125112 | 16 | 201 | 0.0 | 0.0 | 0.00 | 0.00 | 0.00 | 75 | 1021.6 |
| 20260906124608 | 16 | 201 | 0.0 | 0.0 | 0.00 | 0.00 | 0.00 | 75 | 1021.4 |
| 20260906124103 | 15 | 201 | 0.0 | 0.0 | 0.00 | 0.00 | 0.00 | 76 | 1021.5 |
| 20260906123603 | 15 | 201 | 0.0 | 0.0 | 0.00 | 0.00 | 0.00 | 78 | 1021.3 |
| 20260906123057 | 15 | 200 | 0.0 | 0.0 | 0.00 | 0.00 | 0.00 | 79 | 1021.5 |
| 20260906122556 | 15 | 200 | 0.0 | 0.0 | 0.00 | 0.00 | 0.00 | 79 | 1021.5 |
| 20260906122053 | 15 | 200 | 0.0 | 0.0 | 0.00 | 0.00 | 0.00 | 79 | 1021.6 |
| 20260906121548 | 16 | 200 | 0.0 | 0.0 | 0.00 | 0.00 | 0.00 | 78 | 1021.5 |
| 20260906121045 | 15 | 200 | 0.0 | 0.0 | 0.00 | 0.00 | 0.00 | 78 | 1021.4 |
| 20260906120540 | 16 | 200 | 0.0 | 0.0 | 0.00 | 0.00 | 0.00 | 77 | 1021.5 |
| 20260906120037 | 16 | 200 | 0.0 | 0.0 | 0.00 | 0.00 | 0.00 | 77 | 1021.5 |
| 20260906115536 | 15 | 200 | 0.0 | 0.0 | 0.00 | 0.00 | 0.00 | 77 | 1021.5 |
| 20260906115032 | 16 | 200 | 0.0 | 0.0 | 0.00 | 0.00 | 0.00 | 76 | 1021.4 |
| 20260906114526 | 16 | 200 | 0.0 | 0.0 | 0.00 | 0.00 | 0.00 | 75 | 1021.5 |
| 20260906114021 | 16 | 200 | 0.0 | 0.0 | 0.00 | 0.00 | 0.00 | 74 | 1021.4 |
| 20260906113520 | 16 | 200 | 0.0 | 0.0 | 0.00 | 0.00 | 0.00 | 73 | 1021.6 |
| 20260906113015 | 16 | 201 | 0.0 | 0.0 | 0.00 | 0.00 | 0.00 | 73 | 1021.3 |
| 20260906112510 | 16 | 201 | 0.0 | 0.0 | 0.00 | 0.00 | 0.00 | 73 | 1021.4 |
| 20260906112008 | 16 | 200 | 0.0 | 0.0 | 0.00 | 0.00 | 0.00 | 73 | 1021.4 |
| 20260906111506 | 16 | 201 | 0.0 | 0.0 | 0.00 | 0.00 | 0.00 | 72 | 1021.4 |
| 20260906111001 | 16 | 201 | 0.0 | 0.0 | 0.00 | 0.00 | 0.00 | 71 | 1021.5 |
| 20260906110456 | 16 | 201 | 0.0 | 0.0 | 0.00 | 0.00 | 0.00 | 71 | 1021.4 |
| 20260906105954 | 16 | 201 | 0.0 | 0.0 | 0.00 | 0.00 | 0.00 | 71 | 1021.3 |
| 20260906105451 | 17 | 201 | 0.0 | 0.0 | 0.00 | 0.00 | 0.00 | 71 | 1021.4 |
| 20260906104947 | 16 | 201 | 0.0 | 0.0 | 0.00 | 0.00 | 0.00 | 71 | 1021.3 |
| 20260906104445 | 17 | 201 | 0.0 | 0.0 | 0.00 | 0.00 | 0.00 | 70 | 1021.4 |
| 20260906103945 | 17 | 200 | 0.0 | 0.0 | 0.00 | 0.00 | 0.00 | 70 | 1021.3 |
| 20260906103443 | 17 | 201 | 0.0 | 0.0 | 0.00 | 0.00 | 0.00 | 69 | 1021.1 |
| 20260906102938 | 17 | 201 | 0.0 | 0.0 | 0.00 | 0.00 | 0.00 | 69 | 1021.3 |
| 20260906102433 | 17 | 200 | 0.0 | 0.0 | 0.00 | 0.00 | 0.00 | 69 | 1021.2 |
| 20260906101933 | 17 | 200 | 0.0 | 0.0 | 0.00 | 0.00 | 0.00 | 68 | 1021.2 |
| 20260906101429 | 17 | 200 | 0.0 | 0.0 | 0.00 | 0.00 | 0.00 | 68 | 1021.4 |
| 20260906100924 | 17 | 200 | 0.0 | 0.0 | 0.00 | 0.00 | 0.00 | 68 | 1021.4 |
| 20260906100423 | 17 | 200 | 0.0 | 0.0 | 0.00 | 0.00 | 0.00 | 68 | 1021.2 |
| 20260906095918 | 17 | 200 | 0.0 | 0.0 | 0.00 | 0.00 | 0.00 | 68 | 1021.3 |
| 20260906095414 | 17 | 200 | 0.0 | 0.0 | 0.00 | 0.00 | 0.00 | 67 | 1021.2 |
| 20260906094913 | 17 | 200 | 0.0 | 0.0 | 0.00 | 0.00 | 0.00 | 66 | 1021.2 |
| 20260906094408 | 18 | 200 | 0.0 | 0.0 | 0.00 | 0.00 | 0.00 | 65 | 1021.2 |
| 20260906093900 | 18 | 200 | 0.0 | 0.0 | 0.00 | 0.00 | 0.00 | 64 | 1021.1 |
| 20260906093355 | 18 | 200 | 0.0 | 0.0 | 0.00 | 0.00 | 0.00 | 64 | 1020.7 |
| 20260906092855 | 18 | 196 | 0.0 | 0.0 | 0.00 | 0.00 | 0.00 | 65 | 1020.8 |
| 20260906092349 | 18 | 196 | 0.0 | 0.0 | 0.00 | 0.00 | 0.00 | 65 | 1020.8 |
| 20260906091850 | 18 | 196 | 0.0 | 0.0 | 0.00 | 0.00 | 0.00 | 64 | 1020.7 |
| 20260906091346 | 18 | 195 | 0.0 | 0.0 | 0.00 | 0.00 | 0.00 | 64 | 1020.7 |
| 20260906090842 | 18 | 198 | 0.0 | 0.0 | 0.00 | 0.00 | 0.00 | 64 | 1020.6 |
| 20260906090341 | 18 | 198 | 0.0 | 0.0 | 0.00 | 0.00 | 0.00 | 64 | 1020.5 |
| 20260906085836 | 18 | 195 | 0.0 | 0.0 | 0.00 | 0.00 | 0.00 | 64 | 1020.5 |
| 20260906085335 | 18 | 191 | 0.0 | 0.0 | 0.00 | 0.00 | 0.00 | 64 | 1020.6 |
| 20260906084825 | 18 | 186 | 0.0 | 0.0 | 0.00 | 0.00 | 0.00 | 63 | 1020.4 |
| 20260906084324 | 18 | 168 | 0.0 | 0.0 | 0.00 | 0.00 | 0.00 | 63 | 1020.2 |
| 20260906083819 | 19 | 198 | 0.0 | 0.0 | 0.00 | 0.00 | 0.00 | 62 | 1020.5 |
| 20260906083314 | 19 | 185 | 0.0 | 0.0 | 0.00 | 0.00 | 0.00 | 62 | 1020.7 |
| 20260906082809 | 19 | 212 | 0.0 | 0.0 | 0.00 | 0.00 | 0.00 | 62 | 1020.6 |
| 20260906082306 | 18 | 182 | 0.0 | 0.0 | 0.00 | 0.00 | 0.00 | 62 | 1020.9 |
| 20260906081759 | 18 | 175 | 0.0 | 0.0 | 0.00 | 0.00 | 0.00 | 62 | 1020.6 |
| 20260906081255 | 18 | 181 | 0.0 | 0.0 | 0.00 | 0.00 | 0.00 | 63 | 1020.7 |
| 20260906080752 | 19 | 177 | 0.0 | 0.0 | 0.00 | 0.00 | 0.00 | 62 | 1020.8 |
| 20260906080248 | 19 | 223 | 0.0 | 1.6 | 0.00 | 0.00 | 0.00 | 61 | 1020.6 |
| 20260906075747 | 19 | 191 | 0.0 | 0.0 | 0.00 | 0.00 | 0.00 | 61 | 1020.6 |
| 20260906075241 | 19 | 216 | 0.0 | 1.6 | 0.00 | 0.00 | 0.00 | 60 | 1020.5 |
| 20260906074737 | 19 | 201 | 0.0 | 1.6 | 0.00 | 0.00 | 0.00 | 60 | 1020.8 |
| 20260906074236 | 19 | 201 | 1.6 | 1.6 | 0.00 | 0.00 | 0.00 | 60 | 1020.8 |
| 20260906073731 | 19 | 185 | 0.0 | 0.0 | 0.00 | 0.00 | 0.00 | 60 | 1020.7 |
| 20260906073231 | 20 | 182 | 0.0 | 0.0 | 0.00 | 0.00 | 0.00 | 59 | 1020.6 |
| 20260906072726 | 20 | 208 | 0.0 | 1.6 | 0.00 | 0.00 | 0.00 | 58 | 1020.6 |
| 20260906072222 | 20 | 205 | 1.6 | 1.6 | 0.00 | 0.00 | 0.00 | 57 | 1020.5 |
| 20260906071718 | 20 | 188 | 1.6 | 1.6 | 0.00 | 0.00 | 0.00 | 57 | 1020.7 |
| 20260906071217 | 20 | 185 | 0.0 | 0.0 | 0.00 | 0.00 | 0.00 | 57 | 1020.6 |
| 20260906070715 | 20 | 139 | 0.0 | 0.0 | 0.00 | 0.00 | 0.00 | 57 | 1020.8 |
| 20260906070210 | 18 | 168 | 0.0 | 0.0 | 0.00 | 0.00 | 0.00 | 60 | 1020.9 |
| 20260906065709 | 19 | 195 | 0.0 | 0.0 | 0.00 | 0.00 | 0.00 | 59 | 1020.8 |
| 20260906065205 | 19 | 195 | 0.0 | 0.0 | 0.00 | 0.00 | 0.00 | 59 | 1020.8 |
| 20260906064700 | 19 | 195 | 0.0 | 0.0 | 0.00 | 0.00 | 0.00 | 58 | 1021.1 |
| 20260906064155 | 19 | 195 | 0.0 | 0.0 | 0.00 | 0.00 | 0.00 | 57 | 1020.9 |
| 20260906063650 | 20 | 194 | 0.0 | 0.0 | 0.00 | 0.00 | 0.00 | 57 | 1020.9 |
| 20260906063146 | 20 | 195 | 0.0 | 0.0 | 0.00 | 0.00 | 0.00 | 56 | 1020.9 |
| 20260906062642 | 19 | 192 | 0.0 | 0.0 | 0.00 | 0.00 | 0.00 | 56 | 1021.1 |
| 20260906062140 | 20 | 192 | 0.0 | 0.0 | 0.00 | 0.00 | 0.00 | 56 | 1020.7 |
| 20260906061637 | 20 | 192 | 0.0 | 0.0 | 0.00 | 0.00 | 0.00 | 56 | 1020.7 |
| 20260906061137 | 20 | 192 | 0.0 | 0.0 | 0.00 | 0.00 | 0.00 | 55 | 1020.6 |
| 20260906060633 | 20 | 191 | 0.0 | 0.0 | 0.00 | 0.00 | 0.00 | 54 | 1020.7 |
| 20260906060131 | 20 | 201 | 0.0 | 0.0 | 0.00 | 0.00 | 0.00 | 55 | 1020.8 |
| 20260906055626 | 20 | 203 | 0.0 | 0.0 | 0.00 | 0.00 | 0.00 | 55 | 1020.6 |
| 20260906055120 | 20 | 201 | 0.0 | 0.0 | 0.00 | 0.00 | 0.00 | 54 | 1020.6 |
| 20260906054616 | 20 | 199 | 0.0 | 1.6 | 0.00 | 0.00 | 0.00 | 54 | 1020.4 |
| 20260906054111 | 20 | 195 | 0.0 | 0.0 | 0.00 | 0.00 | 0.00 | 53 | 1020.7 |
| 20260906053608 | 20 | 204 | 0.0 | 1.6 | 0.00 | 0.00 | 0.00 | 53 | 1020.8 |
| 20260906053103 | 21 | 200 | 0.0 | 0.0 | 0.00 | 0.00 | 0.00 | 53 | 1020.7 |
| 20260906052558 | 21 | 182 | 0.0 | 0.0 | 0.00 | 0.00 | 0.00 | 52 | 1020.8 |
| 20260906052055 | 21 | 182 | 0.0 | 0.0 | 0.00 | 0.00 | 0.00 | 51 | 1020.9 |
| 20260906051550 | 21 | 181 | 0.0 | 0.0 | 0.00 | 0.00 | 0.00 | 51 | 1020.9 |
| 20260906051045 | 21 | 181 | 0.0 | 0.0 | 0.00 | 0.00 | 0.00 | 51 | 1020.6 |
| 20260906050540 | 22 | 172 | 0.0 | 0.0 | 0.00 | 0.00 | 0.00 | 49 | 1020.5 |
| 20260906050036 | 22 | 162 | 0.0 | 1.6 | 0.00 | 0.00 | 0.00 | 50 | 1020.2 |
| 20260906045534 | 21 | 57 | 4.8 | 4.8 | 0.00 | 0.00 | 0.00 | 50 | 1020.2 |
| 20260906045030 | 21 | 189 | 0.0 | 0.0 | 0.00 | 0.00 | 0.00 | 50 | 1019.7 |
| 20260906044525 | 21 | 199 | 0.0 | 1.6 | 0.00 | 0.00 | 0.00 | 51 | 1019.8 |
| 20260906044015 | 21 | 197 | 0.0 | 0.0 | 0.00 | 0.00 | 0.00 | 51 | 1019.8 |
| 20260906043511 | 21 | 178 | 0.0 | 0.0 | 0.00 | 0.00 | 0.00 | 51 | 1019.8 |
| 20260906043007 | 21 | 161 | 0.0 | 0.0 | 0.00 | 0.00 | 0.00 | 52 | 1019.7 |
| 20260906042506 | 21 | 173 | 0.0 | 0.0 | 0.00 | 0.00 | 0.00 | 50 | 1019.7 |
| 20260906042005 | 22 | 182 | 0.0 | 1.6 | 0.00 | 0.00 | 0.00 | 49 | 1019.4 |
| 20260906041502 | 22 | 203 | 1.6 | 1.6 | 0.00 | 0.00 | 0.00 | 48 | 1019.2 |
| 20260906041002 | 22 | 195 | 0.0 | 1.6 | 0.00 | 0.00 | 0.00 | 49 | 1019.7 |
| 20260906040456 | 22 | 211 | 1.6 | 1.6 | 0.00 | 0.00 | 0.00 | 48 | 1019.7 |
| 20260906035951 | 22 | 192 | 1.6 | 1.6 | 0.00 | 0.00 | 0.00 | 48 | 1019.4 |
| 20260906035446 | 23 | 209 | 1.6 | 1.6 | 0.00 | 0.00 | 0.00 | 47 | 1019.4 |
| 20260906034942 | 23 | 209 | 1.6 | 1.6 | 0.00 | 0.00 | 0.00 | 47 | 1019.4 |
| 20260906034436 | 23 | 193 | 0.0 | 0.0 | 0.00 | 0.00 | 0.00 | 47 | 1019.5 |
| 20260906033932 | 23 | 189 | 0.0 | 0.0 | 0.00 | 0.00 | 0.00 | 45 | 1019.5 |
| 20260906033427 | 23 | 197 | 0.0 | 1.6 | 0.00 | 0.00 | 0.00 | 44 | 1019.4 |
| 20260906032923 | 24 | 183 | 0.0 | 0.0 | 0.00 | 0.00 | 0.00 | 44 | 1019.4 |
| 20260906032419 | 24 | 55 | 3.2 | 3.2 | 0.00 | 0.00 | 0.00 | 44 | 1019.7 |
| 20260906031913 | 24 | 189 | 0.0 | 0.0 | 0.00 | 0.00 | 0.00 | 43 | 1019.5 |
| 20260906031408 | 25 | 188 | 0.0 | 0.0 | 0.00 | 0.00 | 0.00 | 43 | 1019.2 |
| 20260906030903 | 25 | 183 | 0.0 | 0.0 | 0.00 | 0.00 | 0.00 | 43 | 1019.2 |
| 20260906030358 | 25 | 143 | 1.6 | 1.6 | 0.00 | 0.00 | 0.00 | 42 | 1019.2 |
| 20260906025852 | 25 | 121 | 1.6 | 1.6 | 0.00 | 0.00 | 0.00 | 42 | 1019.2 |
| 20260906025346 | 25 | 178 | 0.0 | 1.6 | 0.00 | 0.00 | 0.00 | 42 | 1019.0 |
| 20260906024845 | 25 | 92 | 3.2 | 3.2 | 0.00 | 0.00 | 0.00 | 41 | 1019.1 |
| 20260906024344 | 25 | 178 | 0.0 | 0.0 | 0.00 | 0.00 | 0.00 | 41 | 1019.1 |
| 20260906023840 | 26 | 70 | 1.6 | 1.6 | 0.00 | 0.00 | 0.00 | 41 | 1019.1 |
| 20260906023336 | 24 | 50 | 6.4 | 6.4 | 0.00 | 0.00 | 0.00 | 40 | 1019.1 |
| 20260906022831 | 25 | 196 | 0.0 | 0.0 | 0.00 | 0.00 | 0.00 | 42 | 1018.8 |
| 20260906022326 | 25 | 196 | 0.0 | 0.0 | 0.00 | 0.00 | 0.00 | 41 | 1018.8 |
| 20260906021822 | 25 | 196 | 0.0 | 0.0 | 0.00 | 0.00 | 0.00 | 41 | 1018.7 |
| 20260906021321 | 25 | 187 | 0.0 | 0.0 | 0.00 | 0.00 | 0.00 | 41 | 1018.4 |
| 20260906020822 | 25 | 187 | 0.0 | 0.0 | 0.00 | 0.00 | 0.00 | 40 | 1018.5 |
| 20260906020321 | 25 | 186 | 0.0 | 0.0 | 0.00 | 0.00 | 0.00 | 39 | 1018.6 |
| 20260906015816 | 25 | 179 | 0.0 | 0.0 | 0.00 | 0.00 | 0.00 | 40 | 1018.5 |
| 20260906015315 | 26 | 196 | 0.0 | 0.0 | 0.00 | 0.00 | 0.00 | 40 | 1018.5 |
| 20260906014814 | 26 | 206 | 0.0 | 1.6 | 0.00 | 0.00 | 0.00 | 38 | 1018.3 |
| 20260906014310 | 26 | 196 | 0.0 | 0.0 | 0.00 | 0.00 | 0.00 | 38 | 1018.4 |
| 20260906013806 | 27 | 190 | 0.0 | 0.0 | 0.00 | 0.00 | 0.00 | 37 | 1018.4 |
| 20260906013300 | 27 | 201 | 0.0 | 0.0 | 0.00 | 0.00 | 0.00 | 37 | 1018.1 |
| 20260906012756 | 27 | 195 | 0.0 | 0.0 | 0.00 | 0.00 | 0.00 | 37 | 1018.3 |
| 20260906012251 | 27 | 194 | 0.0 | 1.6 | 0.00 | 0.00 | 0.00 | 36 | 1018.1 |
| 20260906011746 | 27 | 338 | 3.2 | 4.8 | 0.00 | 0.00 | 0.00 | 36 | 1018.3 |
| 20260906011246 | 27 | 252 | 3.2 | 3.2 | 0.00 | 0.00 | 0.00 | 36 | 1018.1 |
| 20260906010742 | 27 | 183 | 0.0 | 0.0 | 0.00 | 0.00 | 0.00 | 36 | 1018.6 |
| 20260906010238 | 27 | 184 | 1.6 | 1.6 | 0.00 | 0.00 | 0.00 | 36 | 1018.5 |
| 20260906005733 | 27 | 224 | 3.2 | 3.2 | 0.00 | 0.00 | 0.00 | 36 | 1018.4 |
| 20260906005231 | 27 | 268 | 4.8 | 6.4 | 0.00 | 0.00 | 0.00 | 36 | 1018.5 |
| 20260906004731 | 27 | 287 | 4.8 | 4.8 | 0.00 | 0.00 | 0.00 | 36 | 1018.6 |
| 20260906004226 | 27 | 188 | 1.6 | 1.6 | 0.00 | 0.00 | 0.00 | 36 | 1018.4 |
| 20260906003721 | 28 | 285 | 4.8 | 6.4 | 0.00 | 0.00 | 0.00 | 36 | 1018.5 |
| 20260906003217 | 28 | 278 | 6.4 | 9.7 | 0.00 | 0.00 | 0.00 | 35 | 1018.6 |
| 20260906002717 | 28 | 234 | 3.2 | 3.2 | 0.00 | 0.00 | 0.00 | 35 | 1018.6 |
| 20260906002213 | 29 | 256 | 4.8 | 9.7 | 0.00 | 0.00 | 0.00 | 34 | 1018.7 |
| 20260906001708 | 29 | 116 | 3.2 | 3.2 | 0.00 | 0.00 | 0.00 | 33 | 1018.5 |
| 20260906001208 | 30 | 278 | 6.4 | 11.3 | 0.00 | 0.00 | 0.00 | 33 | 1018.4 |
| 20260906000703 | 30 | 247 | 4.8 | 4.8 | 0.00 | 0.00 | 0.00 | 32 | 1018.5 |
| 20260906000158 | 30 | 185 | 3.2 | 4.8 | 0.00 | 0.00 | 0.00 | 32 | 1018.4 |
| 20260905235657 | 30 | 263 | 3.2 | 3.2 | 0.00 | 0.00 | 0.00 | 31 | 1018.5 |
| 20260905235152 | 31 | 274 | 4.8 | 12.9 | 0.00 | 0.00 | 0.00 | 30 | 1018.4 |
| 20260905234647 | 31 | 320 | 4.8 | 4.8 | 0.00 | 0.00 | 0.00 | 30 | 1018.4 |
| 20260905234143 | 31 | 237 | 3.2 | 3.2 | 0.00 | 0.00 | 0.00 | 29 | 1018.3 |
| 20260905233638 | 31 | 194 | 1.6 | 1.6 | 0.00 | 0.00 | 0.00 | 30 | 1018.4 |
| 20260905233137 | 31 | 178 | 0.0 | 0.0 | 0.00 | 0.00 | 0.00 | 30 | 1018.3 |
| 20260905232633 | 31 | 178 | 0.0 | 0.0 | 0.00 | 0.00 | 0.00 | 30 | 1018.1 |
| 20260905232128 | 32 | 177 | 0.0 | 0.0 | 0.00 | 0.00 | 0.00 | 30 | 1018.1 |
| 20260905231623 | 32 | 176 | 0.0 | 0.0 | 0.00 | 0.00 | 0.00 | 29 | 1018.0 |
| 20260905231119 | 32 | 169 | 0.0 | 1.6 | 0.00 | 0.00 | 0.00 | 28 | 1017.8 |
| 20260905230615 | 32 | 170 | 0.0 | 0.0 | 0.00 | 0.00 | 0.00 | 28 | 1017.8 |
| 20260905230113 | 32 | 180 | 0.0 | 0.0 | 0.00 | 0.00 | 0.00 | 29 | 1017.7 |
| 20260905225613 | 32 | 160 | 0.0 | 0.0 | 0.00 | 0.00 | 0.00 | 27 | 1017.7 |
| 20260905225108 | 32 | 185 | 1.6 | 1.6 | 0.00 | 0.00 | 0.00 | 27 | 1017.7 |
| 20260905224607 | 32 | 147 | 1.6 | 1.6 | 0.00 | 0.00 | 0.00 | 27 | 1017.5 |
| 20260905224106 | 32 | 158 | 0.0 | 0.0 | 0.00 | 0.00 | 0.00 | 27 | 1017.5 |
| 20260905223604 | 32 | 167 | 0.0 | 1.6 | 0.00 | 0.00 | 0.00 | 28 | 1017.7 |
| 20260905223100 | 33 | 57 | 3.2 | 4.8 | 0.00 | 0.00 | 0.00 | 27 | 1017.5 |
| 20260905222600 | 33 | 93 | 6.4 | 9.7 | 0.00 | 0.00 | 0.00 | 27 | 1017.8 |
| 20260905222055 | 33 | 11 | 1.6 | 3.2 | 0.00 | 0.00 | 0.00 | 27 | 1017.7 |
| 20260905221551 | 33 | 135 | 3.2 | 4.8 | 0.00 | 0.00 | 0.00 | 27 | 1017.6 |
| 20260905221047 | 33 | 171 | 0.0 | 1.6 | 0.00 | 0.00 | 0.00 | 27 | 1017.5 |
| 20260905220543 | 33 | 139 | 1.6 | 3.2 | 0.00 | 0.00 | 0.00 | 27 | 1017.5 |
| 20260905220039 | 33 | 144 | 1.6 | 1.6 | 0.00 | 0.00 | 0.00 | 27 | 1017.7 |
| 20260905215538 | 33 | 73 | 4.8 | 9.7 | 0.00 | 0.00 | 0.00 | 26 | 1017.3 |